Forks, WA

4:51 PM PDT on October 24, 2014 (GMT -0700)
Quillayute | Change Station
CLOSE
Current Station
Airport
Location: Quillayute,
Elevation: 194 ft
Nearby Weather Stations

Elev 194 ft 47.94 °N, 124.56 °W | Updated 58 minutes ago

Mostly Cloudy
Mostly Cloudy
54 °F
Feels Like 54 °F
N
9
Wind Variable Wind from NE

Today
High -- | Low -- °F
--% Chance of Precip.
Yesterday
High -- | Low -- °F
Precip. -- in
7:50 AM 6:12 PM
New Moon, 1% visible
Pressure 29.90 in
Visibility 5.0 miles
Clouds Few 12000 ft
Dew Point 47 °F
Humidity 77%
Rainfall 0.01 in
Snow Depth Not available.
UV 1 out of 12
Pollen .40 out of 12
Air Quality Not available.
Flu Activity Sporadic
METAR KUIL 242253Z AUTO 05008KT 5SM HZ FEW120 12/08 A2990 RMK AO2 SLP124 T01220083

More Conditions Fewer Conditions

Pressure 29.90 in
Visibility 5.0 miles
Clouds Few 12000 ft
Dew Point 47 °F
Humidity 77%
Rainfall 0.01 in
Snow Depth Not available.
UV 1 out of 12
Pollen .40 out of 12
Air Quality Not available.
Flu Activity Sporadic
METAR KUIL 242253Z AUTO 05008KT 5SM HZ FEW120 12/08 A2990 RMK AO2 SLP124 T01220083

More Conditions Fewer Conditions

10-Day Weather Forecast

Almanac

Astronomy

Oct. 24, 2014 Rise Set
Actual Time 7:50 AM PDT 6:12 PM PDT
Civil Twilight 7:18 AM PDT 6:44 PM PDT
Nautical Twilight 6:42 AM PDT 7:20 PM PDT
Astronomical Twilight 6:06 AM PDT 7:56 PM PDT
Moon 8:38 AM PDT 6:52 PM PDT
Length of Visible Light 11h 25m
Length of Day
10h 22m
Tomorrow will be 3m 16s shorter.
New Moon, 1% of the Moon is Illuminated
Today
New Moon
Oct 30
First Quarter
Nov 6
Full
Nov 14
Last Quarter
Nov 22
New

Today's Extremes

State Highs State Lows

Community

WunderPhotos

Upload Photos

1,764,713 photos uploaded!

Nearby

Snow Depth

Station Depth Elevation
Dungeness 0 in 4100 ft
Alpine Meadows 0 in 3500 ft
Elbow Lake 0 in 3200 ft
Mf Nooksack 0 in 4980 ft
Wells Creek 0 in 4200 ft

Earthquake Activity

City Distance Mag. Time & Date
Birch Bay, Washington 97 miles 2.8 3:02 AM PDT
2014-10-24
Minimum magnitude displayed is 2.5.

Coastal Water Temperatures

Place Temperature
La Push, WA 51.1 °F
Westport, WA 57.9 °F
Port Angeles, WA 57.0 °F
Astoria, OR 60.1 °F

Nearby Weather Stations